Latest Weather Observations for Coolangatta

IDQ60901

Issued at 11:11 am EST Sunday 26 April 2015 (issued every 10 minutes, with the page automatically refreshed every 10 minutes)

About weather observations | Map of Brisbane area stations | Latest observations for Brisbane area | Other Formats
Station Details ID: 040717 Name: COOLANGATTA Lat: -28.17 Lon: 153.51 Height: 4.0 m
Data from the previous 72 hours. | See also: Recent months at Coolangatta
Date/Time
EST
Tmp

°C
App
Tmp
°C
Dew
Point
°C
Rel
Hum
%
Delta-T

°C
Wind Press
QNH
hPa
Press
MSL
hPa
Rain
since
9 am
mm
Dir
 
Spd
km/h
Gust
km/h
Spd
kts
Gust
kts
26/11:00am 22.3 18.6 4.4 31 8.8 S 13 20 7 11 1009.4 1009.3 0.0
26/10:30am 22.1 17.3 4.6 32 8.6 WNW 19 28 10 15 1009.6 1009.5 0.0
26/10:00am 21.6 16.6 4.7 33 8.3 W 20 30 11 16 1009.7 1009.6 0.0
26/09:30am 21.2 18.7 4.7 34 8.1 NNW 7 13 4 7 1010.2 1010.1 0.0
26/09:00am 20.8 18.6 5.2 36 7.7 ENE 6 11 3 6 1010.6 1010.5 0.0
26/08:30am 20.1 18.8 6.1 40 7.0 WNW 2 7 1 4 1010.9 1010.8 0.0
26/08:00am 18.6 16.8 8.0 50 5.4 SW 7 13 4 7 1010.8 1010.7 0.0
26/07:30am 16.8 15.0 9.5 62 3.8 NNW 9 13 5 7 1010.5 1010.4 0.0
26/07:00am 13.8 13.1 12.0 89 1.0 W 7 9 4 5 1010.4 1010.3 0.0
26/06:30am 12.4 10.7 11.1 92 0.7 WSW 11 13 6 7 1010.0 1009.9 0.0
26/06:00am 13.0 11.6 12.1 94 0.5 WSW 11 13 6 7 1009.6 1009.5 0.0
26/05:30am 13.3 11.1 12.0 92 0.7 WSW 15 17 8 9 1009.3 1009.2 0.0
26/05:00am 13.7 11.7 12.8 94 0.5 WSW 15 17 8 9 1009.0 1008.9 0.0
26/04:30am 13.2 11.9 12.4 95 0.4 WSW 11 13 6 7 1008.8 1008.7 0.0
26/04:00am 12.7 12.1 11.6 93 0.6 W 6 7 3 4 1008.4 1008.3 0.0
26/03:30am 13.5 13.1 12.4 93 0.6 WSW 6 9 3 5 1008.3 1008.2 0.0
26/03:00am 14.4 14.6 13.0 91 0.8 W 4 6 2 3 1008.1 1008.0 0.0
26/02:30am 14.9 14.7 13.6 92 0.7 WSW 7 9 4 5 1007.9 1007.8 0.0
26/02:00am 15.4 15.2 13.6 89 1.0 WSW 7 9 4 5 1007.9 1007.8 0.0
26/01:30am 15.6 15.3 13.3 86 1.3 WSW 7 9 4 5 1008.1 1008.0 0.0
26/01:00am 15.6 15.4 13.1 85 1.4 WSW 6 7 3 4 1008.1 1008.0 0.0
26/12:30am 16.6 16.6 14.2 86 1.4 WSW 7 11 4 6 1008.3 1008.2 0.0
26/12:00am 16.0 16.1 13.8 87 1.2 WNW 6 7 3 4 1008.5 1008.4 0.0
 
Date/Time
EST
Tmp

°C
App
Tmp
°C
Dew
Point
°C
Rel
Hum
%
Delta-T

°C
Wind Press
QNH
hPa
Press
MSL
hPa
Rain
since
9 am
mm
Dir
 
Spd
km/h
Gust
km/h
Spd
kts
Gust
kts
25/11:30pm 16.5 16.2 14.3 87 1.3 WSW 9 11 5 6 1008.8 1008.7 0.0
25/11:00pm 16.8 16.9 14.4 86 1.4 WSW 7 9 4 5 1009.1 1009.0 0.0
25/10:30pm 17.1 16.8 14.4 84 1.5 WSW 9 11 5 6 1009.4 1009.3 0.0
25/10:00pm 17.1 17.0 13.8 81 1.9 WSW 7 9 4 5 1009.4 1009.3 0.0
25/09:30pm 17.8 17.9 14.5 81 1.9 WSW 7 9 4 5 1009.5 1009.4 0.0
25/09:00pm 19.7 18.5 12.9 65 3.8 WNW 11 15 6 8 1009.7 1009.6 0.0
25/08:30pm 17.8 17.3 13.9 78 2.2 WNW 9 13 5 7 1009.6 1009.5 0.0
25/08:00pm 17.8 17.8 15.1 84 1.6 WSW 9 9 5 5 1009.4 1009.3 0.0
25/07:30pm 17.8 17.5 14.5 81 1.9 W 9 11 5 6 1009.0 1008.9 0.0
25/07:00pm 18.7 18.6 15.0 79 2.2 W 9 11 5 6 1008.7 1008.6 0.0
25/06:30pm 19.8 19.3 15.0 74 2.8 W 11 11 6 6 1008.3 1008.2 0.0
25/06:00pm 23.2 22.5 15.3 61 4.7 NNW 13 17 7 9 1008.0 1007.9 0.0
25/05:30pm 23.5 22.7 16.1 63 4.5 N 15 20 8 11 1007.7 1007.6 0.0
25/05:00pm 25.1 24.9 14.8 52 6.2 N 9 15 5 8 1007.6 1007.5 0.0
25/04:30pm 26.2 24.8 14.6 48 6.9 NNE 15 17 8 9 1007.5 1007.4 0.0
25/04:00pm 26.9 24.7 12.2 40 8.5 NNE 15 20 8 11 1007.4 1007.3 0.0
25/03:30pm 27.0 24.7 13.0 42 8.2 NNE 17 20 9 11 1007.3 1007.2 0.0
25/03:00pm 27.2 24.2 12.4 40 8.6 NNE 20 24 11 13 1007.3 1007.2 0.0
25/02:30pm 27.6 26.0 14.9 45 7.7 NE 17 20 9 11 1007.4 1007.3 0.0
25/02:00pm 26.7 24.8 15.1 49 7.0 NNE 19 22 10 12 1007.6 1007.5 0.0
25/01:30pm 26.5 25.7 16.1 52 6.4 NE 15 22 8 12 1008.0 1007.9 0.0
25/01:00pm 26.7 25.4 14.8 48 7.2 NE 15 19 8 10 1008.2 1008.1 0.0
25/12:30pm 26.6 24.7 15.3 50 6.9 NNE 19 20 10 11 1008.4 1008.3 0.0
25/12:00pm 27.0 24.7 13.0 42 8.2 NNE 17 19 9 10 1008.7 1008.6 0.0
25/11:30am 27.1 25.3 13.4 42 8.1 NNE 15 19 8 10 1009.2 1009.1 0.0
25/11:00am 26.7 25.8 12.7 42 8.2 NNW 9 17 5 9 1009.6 1009.5 0.0
25/10:30am 26.7 25.8 11.2 38 8.8 NNW 7 11 4 6 1010.0 1009.9 0.0
25/10:00am 26.4 25.3 12.1 41 8.2 NW 9 13 5 7 1010.3 1010.2 0.0
25/09:30am 26.3 25.2 12.0 41 8.2 NW 9 11 5 6 1010.6 1010.5 0.0
25/09:00am 24.2 25.3 15.7 59 5.1 WNW 4 7 2 4 1010.7 1010.6 0.0
25/08:30am 21.6 22.6 16.3 72 3.2 SW 6 7 3 4 1010.7 1010.6 0.0
25/08:00am 18.8 19.9 15.5 81 1.9 SW 4 7 2 4 1010.6 1010.5 0.0
25/07:30am 17.0 17.4 15.2 89 1.0 WSW 7 9 4 5 1010.5 1010.4 0.0
25/07:00am 16.1 17.8 15.3 95 0.5 CALM 0 0 0 0 1010.0 1009.9 0.0
25/06:30am 14.8 15.0 14.2 96 0.3 SW 6 9 3 5 1010.0 1009.9 0.0
25/06:00am 14.6 14.5 14.0 96 0.3 SW 7 7 4 4 1009.7 1009.6 0.0
25/05:30am 14.6 15.1 14.0 96 0.3 SW 4 7 2 4 1009.5 1009.4 0.0
25/05:00am 14.8 16.1 14.0 95 0.5 CALM 0 6 0 3 1009.4 1009.3 0.0
25/04:30am 15.3 15.7 14.7 96 0.3 SW 6 7 3 4 1009.2 1009.1 0.0
25/04:00am 15.3 15.5 14.7 96 0.3 WSW 7 9 4 5 1009.1 1009.0 0.0
25/03:30am 14.7 14.7 13.6 93 0.6 W 6 9 3 5 1009.0 1008.9 0.0
25/03:00am 14.9 15.3 13.8 93 0.6 SW 4 7 2 4 1009.1 1009.0 0.0
25/02:30am 16.0 16.4 15.4 96 0.3 SW 7 9 4 5 1009.3 1009.2 0.0
25/02:00am 15.9 16.2 15.1 95 0.5 WSW 7 9 4 5 1009.3 1009.2 0.0
25/01:30am 16.3 17.0 15.5 95 0.5 SW 6 7 3 4 1009.5 1009.4 0.0
25/01:00am 16.3 16.5 15.7 96 0.4 SW 9 11 5 6 1009.5 1009.4 0.0
25/12:30am 16.3 17.8 15.7 96 0.4 WSW 2 7 1 4 1009.8 1009.7 0.0
25/12:00am 15.9 17.5 14.8 93 0.6 CALM 0 0 0 0 1010.0 1009.9 0.0
 
Date/Time
EST
Tmp

°C
App
Tmp
°C
Dew
Point
°C
Rel
Hum
%
Delta-T

°C
Wind Press
QNH
hPa
Press
MSL
hPa
Rain
since
9 am
mm
Dir
 
Spd
km/h
Gust
km/h
Spd
kts
Gust
kts
24/11:30pm 16.5 18.4 15.7 95 0.5 CALM 0 0 0 0 1010.0 1009.9 0.0
24/11:00pm 16.7 18.6 15.7 94 0.6 CALM 0 0 0 0 1009.9 1009.8 0.0
24/10:30pm 17.2 19.3 16.2 94 0.6 CALM 0 0 0 0 1009.9 1009.8 0.0
24/10:00pm 17.1 17.8 16.0 93 0.6 WSW 7 9 4 5 1010.1 1010.0 0.0
24/09:30pm 17.3 17.9 15.8 91 0.9 WSW 7 9 4 5 1010.2 1010.1 0.0
24/09:00pm 17.8 18.5 16.1 90 1.0 WSW 7 9 4 5 1010.0 1009.9 0.0
24/08:30pm 17.8 18.1 16.0 89 1.1 WSW 9 11 5 6 1009.8 1009.7 0.0
24/08:00pm 18.2 18.9 16.0 87 1.3 WSW 7 9 4 5 1009.5 1009.4 0.0
24/07:30pm 18.8 19.2 16.4 86 1.4 WSW 9 9 5 5 1009.6 1009.5 0.0
24/07:00pm 19.2 20.1 16.6 85 1.6 WSW 7 9 4 5 1009.1 1009.0 0.0
24/06:30pm 20.0 20.4 16.4 80 2.2 WSW 9 11 5 6 1008.8 1008.7 0.0
24/06:00pm 22.6 22.5 15.9 66 4.0 N 11 15 6 8 1008.4 1008.3 0.0
24/05:30pm 23.2 22.7 15.8 63 4.5 NNE 13 15 7 8 1008.0 1007.9 0.0
24/05:00pm 23.7 23.2 16.0 62 4.7 NNE 13 17 7 9 1007.7 1007.6 0.0
24/04:30pm 24.3 23.3 15.5 58 5.3 NNE 15 19 8 10 1007.7 1007.6 0.0
24/04:00pm 24.9 24.2 15.5 56 5.7 NE 13 17 7 9 1007.7 1007.6 0.0
24/03:30pm 24.7 24.1 15.6 57 5.5 NNE 13 17 7 9 1007.7 1007.6 0.0
24/03:00pm 25.0 24.2 16.2 58 5.4 NE 15 17 8 9 1007.5 1007.4 0.0
24/02:30pm 25.0 24.2 16.2 58 5.4 NNE 15 20 8 11 1007.5 1007.4 0.0
24/02:00pm 25.0 23.6 15.6 56 5.7 NE 17 22 9 12 1007.7 1007.6 0.0
24/01:30pm 25.0 24.2 16.2 58 5.4 NE 15 20 8 11 1007.8 1007.7 0.0
24/01:00pm 24.8 23.6 16.0 58 5.4 NE 17 19 9 10 1008.1 1008.0 0.0
24/12:30pm 25.0 24.2 16.2 58 5.4 NNE 15 17 8 9 1008.6 1008.5 0.0
24/12:00pm 25.1 24.1 15.7 56 5.7 NNE 15 19 8 10 1009.0 1008.9 0.0
24/11:30am 24.6 23.9 15.5 57 5.5 NNE 13 17 7 9 1009.6 1009.5 0.0
24/11:00am 24.1 24.5 14.8 56 5.5 NNE 6 15 3 8 1009.9 1009.8 0.0
24/10:30am 23.0 23.8 13.8 56 5.4 W 2 7 1 4 1010.1 1010.0 0.0
24/10:00am 21.9 23.2 14.0 61 4.6 CALM 0 0 0 0 1010.4 1010.3 0.0
24/09:30am 21.3 23.1 15.4 69 3.5 CALM 0 6 0 3 1010.5 1010.4 0.0
24/09:00am 19.9 20.5 15.3 75 2.7 SW 6 7 3 4 1010.8 1010.7 0.0
24/08:30am 19.1 19.9 15.8 81 2.0 SW 6 9 3 5 1010.5 1010.4 0.0
24/08:00am 18.2 18.3 15.6 85 1.5 WSW 9 11 5 6 1010.7 1010.6 0.0
24/07:30am 17.4 18.9 15.7 90 1.0 SW 2 9 1 5 1010.6 1010.5 0.0
24/07:00am 16.4 16.4 15.1 92 0.8 WSW 9 11 5 6 1010.3 1010.2 0.0
24/06:30am 15.7 16.1 14.7 94 0.6 SW 6 9 3 5 1010.1 1010.0 0.0
24/06:00am 15.5 16.2 14.5 94 0.6 SW 4 6 2 3 1009.9 1009.8 0.0
24/05:30am 15.4 16.8 14.4 94 0.6 CALM 0 7 0 4 1009.5 1009.4 0.0
24/05:00am 15.2 15.7 14.1 93 0.6 SW 4 7 2 4 1009.4 1009.3 0.0
24/04:30am 15.4 15.4 14.3 93 0.6 SSW 7 9 4 5 1009.4 1009.3 0.0
24/04:00am 15.7 15.9 14.6 93 0.6 SW 7 9 4 5 1009.6 1009.5 0.0
24/03:30am 15.8 17.3 14.7 93 0.6 CALM 0 0 0 0 1009.5 1009.4 0.0
24/03:00am 16.3 17.5 15.0 92 0.8 S 2 6 1 3 1009.8 1009.7 0.0
24/02:30am 16.0 17.2 14.9 93 0.6 SSW 2 7 1 4 1010.0 1009.9 0.0
24/02:00am 16.0 16.5 15.0 94 0.6 SW 6 9 3 5 1010.0 1009.9 0.0
24/01:30am 16.1 16.6 15.0 93 0.6 SW 6 7 3 4 1010.3 1010.2 0.0
24/01:00am 16.2 16.7 15.1 93 0.6 SSW 6 7 3 4 1010.5 1010.4 0.0
24/12:30am 16.1 17.0 15.0 93 0.6 SSW 4 7 2 4 1010.7 1010.6 0.0
24/12:00am 16.0 17.5 14.7 92 0.7 CALM 0 2 0 1 1010.9 1010.8 0.0
 
Date/Time
EST
Tmp

°C
App
Tmp
°C
Dew
Point
°C
Rel
Hum
%
Delta-T

°C
Wind Press
QNH
hPa
Press
MSL
hPa
Rain
since
9 am
mm
Dir
 
Spd
km/h
Gust
km/h
Spd
kts
Gust
kts
23/11:30pm 15.8 17.2 14.5 92 0.7 CALM 0 2 0 1 1011.0 1010.9 0.0
23/11:00pm 15.9 16.9 14.4 91 0.9 SSW 2 6 1 3 1011.2 1011.1 0.0
23/10:30pm 15.8 17.2 14.3 91 0.9 CALM 0 0 0 0 1011.3 1011.2 0.0
23/10:00pm 16.0 17.4 14.5 91 0.9 CALM 0 0 0 0 1011.4 1011.3 0.0
23/09:30pm 16.2 16.4 14.7 91 0.9 SW 7 11 4 6 1011.4 1011.3 0.0
23/09:00pm 16.3 16.5 14.7 90 0.9 WSW 7 11 4 6 1011.4 1011.3 0.0
23/08:30pm 16.6 16.6 15.1 91 0.9 WSW 9 11 5 6 1011.2 1011.1 0.0
23/08:00pm 17.0 17.2 14.6 86 1.4 WSW 7 13 4 7 1011.2 1011.1 0.0
23/07:30pm 17.2 17.6 14.8 86 1.4 SW 6 11 3 6 1011.0 1010.9 0.0
23/07:00pm 17.5 17.5 15.1 86 1.4 WSW 9 13 5 7 1011.0 1010.9 0.0
23/06:30pm 18.0 18.1 15.6 86 1.4 WSW 9 13 5 7 1010.6 1010.5 0.0
23/06:00pm 18.5 18.9 14.8 79 2.2 WSW 6 7 3 4 1010.3 1010.2 0.0
23/05:30pm 20.0 21.3 14.1 69 3.4 CALM 0 6 0 3 1010.0 1009.9 0.0
23/05:00pm 21.9 21.5 14.0 61 4.6 NE 9 11 5 6 1009.7 1009.6 0.0
23/04:30pm 22.6 21.9 14.2 59 4.9 ENE 11 15 6 8 1009.6 1009.5 0.0
23/04:00pm 23.1 21.9 14.1 57 5.3 ENE 13 17 7 9 1009.5 1009.4 0.0
23/03:30pm 23.1 21.8 13.8 55 5.4 ENE 13 17 7 9 1009.6 1009.5 0.0
23/03:00pm 23.4 21.7 13.6 54 5.7 ENE 15 19 8 10 1009.6 1009.5 0.0
23/02:30pm 23.5 21.8 13.7 54 5.7 ENE 15 20 8 11 1009.9 1009.8 0.0
23/02:00pm 23.8 22.1 13.6 52 6.0 NE 15 20 8 11 1010.0 1009.9 0.0
23/01:30pm 24.0 22.5 14.1 54 5.8 NE 15 20 8 11 1010.2 1010.1 0.0
23/01:00pm 23.7 22.0 13.6 53 5.9 NE 15 20 8 11 1010.6 1010.5 0.0
23/12:30pm 23.7 22.3 13.3 52 6.0 NE 13 19 7 10 1011.0 1010.9 0.0
23/12:00pm 23.8 21.9 13.1 51 6.2 NE 15 20 8 11 1011.5 1011.4 0.0
23/11:30am 24.3 23.3 13.5 51 6.3 NE 11 15 6 8 1011.9 1011.8 0.0

Latest Capital City Observations: Canberra | Sydney | Melbourne | Brisbane | Adelaide | Perth | Hobart | Darwin

Other Formats:

Comma delimited format used in spreadsheet applications
http://www.bom.gov.au/fwo/IDQ60901/IDQ60901.94592.axf

JavaScript Object Notation format (JSON) in row-major order
http://www.bom.gov.au/fwo/IDQ60901/IDQ60901.94592.json